Time;durP1;ratioP1;P1;durP2;ratioP2;P2;SDS_P1;SDS_P2;PMS_P1;PMS_P2;Temp;Humidity;BMP_temperature;BMP_pressure;BME280_temperature;BME280_humidity;BME280_pressure;Samples;Min_cycle;Max_cycle;Signal;HPM_P1;HPM_P2
2020/12/16 00:00:21;;;;;;;;;;;5.60;99.90;;;;;;5115678;28;19920;-72
2020/12/16 00:02:47;;;;;;;;;;;5.60;99.90;;;;;;5113795;27;19923;-71
2020/12/16 00:05:14;;;;;;;;;;;5.60;99.90;;;;;;5116099;28;19923;-71
2020/12/16 00:07:41;;;;;;;;;;;5.70;99.90;;;;;;5113867;28;19931;-71
2020/12/16 00:10:08;;;;;;;;;;;5.70;99.90;;;;;;5101417;28;20300;-71
2020/12/16 00:12:36;;;;;;;;;;;5.70;99.90;;;;;;5108572;28;19924;-71
2020/12/16 00:15:03;;;;;;;;;;;5.70;99.90;;;;;;5115488;28;19924;-71
2020/12/16 00:17:29;;;;;;;;;;;5.70;99.90;;;;;;5113609;28;19924;-72
2020/12/16 00:19:55;;;;;;;;;;;5.70;99.90;;;;;;5116361;28;19959;-71
2020/12/16 00:22:23;;;;;;;;;;;5.80;99.90;;;;;;5111093;28;19938;-71
2020/12/16 00:24:49;;;;;;;;;;;5.70;99.90;;;;;;5116097;27;20273;-71
2020/12/16 00:27:15;;;;;;;;;;;5.80;99.90;;;;;;5112721;28;20018;-71
2020/12/16 00:29:41;;;;;;;;;;;5.70;99.90;;;;;;5116113;28;19934;-72
2020/12/16 00:32:08;;;;;;;;;;;5.70;99.90;;;;;;5112478;27;19930;-72
2020/12/16 00:34:34;;;;;;;;;;;5.70;99.90;;;;;;5116005;28;19924;-71
2020/12/16 00:37:01;;;;;;;;;;;5.70;99.90;;;;;;5112491;28;19931;-72
2020/12/16 00:39:28;;;;;;;;;;;5.80;99.90;;;;;;5115514;28;19931;-72
2020/12/16 00:41:54;;;;;;;;;;;5.70;99.90;;;;;;5115471;28;19930;-71
2020/12/16 00:44:20;;;;;;;;;;;5.80;99.90;;;;;;5111826;28;20149;-71
2020/12/16 00:46:48;;;;;;;;;;;5.70;99.90;;;;;;5115476;28;20006;-72
2020/12/16 00:49:14;;;;;;;;;;;5.70;99.90;;;;;;5111601;28;19924;-71
2020/12/16 00:51:40;;;;;;;;;;;5.70;99.90;;;;;;5115394;28;19967;-71
2020/12/16 00:54:07;;;;;;;;;;;5.70;99.90;;;;;;5096497;28;19928;-71
2020/12/16 00:56:34;;;;;;;;;;;5.70;99.90;;;;;;5093845;28;19924;-71
2020/12/16 00:59:01;;;;;;;;;;;5.70;99.90;;;;;;5107855;28;20061;-75
2020/12/16 01:01:28;;;;;;;;;;;5.70;99.90;;;;;;5096775;28;19974;-72
2020/12/16 01:03:55;;;;;;;;;;;5.70;99.90;;;;;;5100369;28;19972;-71
2020/12/16 01:06:21;;;;;;;;;;;5.70;99.90;;;;;;5113609;28;19966;-71
2020/12/16 01:08:48;;;;;;;;;;;5.80;99.90;;;;;;5109581;28;19946;-71
2020/12/16 01:11:14;;;;;;;;;;;5.70;99.90;;;;;;5109438;28;19924;-72
2020/12/16 01:13:41;;;;;;;;;;;5.70;99.90;;;;;;5095016;28;20034;-71
2020/12/16 01:16:12;;;;;;;;;;;5.70;99.90;;;;;;5114461;28;19928;-71
2020/12/16 01:18:41;;;;;;;;;;;5.70;99.90;;;;;;5111146;28;20269;-71
2020/12/16 01:21:11;;;;;;;;;;;5.70;99.90;;;;;;5112921;28;20420;-70
2020/12/16 01:23:46;;;;;;;;;;;5.60;99.90;;;;;;5112204;28;19937;-71
2020/12/16 01:26:12;;;;;;;;;;;5.60;99.90;;;;;;5114368;28;19983;-71
2020/12/16 01:28:48;;;;;;;;;;;5.60;99.90;;;;;;5113245;28;19924;-78
2020/12/16 01:31:14;;;;;;;;;;;5.70;99.90;;;;;;5113022;28;19924;-73
2020/12/16 01:33:42;;;;;;;;;;;5.70;99.90;;;;;;5108171;28;20295;-72
2020/12/16 01:36:16;;;;;;;;;;;5.60;99.90;;;;;;5091428;28;19969;-73
2020/12/16 01:38:44;;;;;;;;;;;5.70;99.90;;;;;;5108114;28;19968;-72
2020/12/16 01:41:11;;;;;;;;;;;5.60;99.90;;;;;;5091134;28;19960;-72
2020/12/16 01:43:48;;;;;;;;;;;5.60;99.90;;;;;;5106092;28;20042;-73
2020/12/16 01:46:19;;;;;;;;;;;5.60;99.90;;;;;;5090204;28;20144;-74
2020/12/16 01:48:46;;;;;;;;;;;5.70;99.90;;;;;;5096101;28;19924;-73
2020/12/16 01:51:15;;;;;;;;;;;5.60;99.90;;;;;;5110623;28;19963;-73
2020/12/16 01:53:43;;;;;;;;;;;5.70;99.90;;;;;;5114100;28;20289;-73
2020/12/16 01:56:11;;;;;;;;;;;5.60;99.90;;;;;;5108885;28;19969;-73
2020/12/16 01:58:48;;;;;;;;;;;5.70;99.90;;;;;;5114490;28;19923;-73
2020/12/16 02:01:19;;;;;;;;;;;5.70;99.90;;;;;;5108819;28;19924;-71
2020/12/16 02:03:46;;;;;;;;;;;5.70;99.90;;;;;;5113865;28;20404;-72
2020/12/16 02:06:20;;;;;;;;;;;5.70;99.90;;;;;;5100066;28;20006;-72
2020/12/16 02:08:50;;;;;;;;;;;5.70;99.90;;;;;;5093375;28;19973;-73
2020/12/16 02:11:18;;;;;;;;;;;5.70;99.90;;;;;;5102400;28;19955;-73
2020/12/16 02:13:53;;;;;;;;;;;5.70;99.90;;;;;;5092628;28;19924;-73
2020/12/16 02:16:20;;;;;;;;;;;5.80;99.90;;;;;;5096198;28;20419;-73
2020/12/16 02:18:48;;;;;;;;;;;5.70;99.90;;;;;;5112931;28;19923;-72
2020/12/16 02:21:22;;;;;;;;;;;5.70;99.90;;;;;;5104576;28;19931;-72
2020/12/16 02:23:51;;;;;;;;;;;5.70;99.90;;;;;;5092040;28;19927;-71
2020/12/16 02:26:18;;;;;;;;;;;5.70;99.90;;;;;;5091165;28;19928;-72
2020/12/16 02:28:51;;;;;;;;;;;5.70;99.90;;;;;;5112423;28;20322;-72
2020/12/16 02:31:23;;;;;;;;;;;5.70;99.90;;;;;;5108823;28;20374;-71
2020/12/16 02:34:03;;;;;;;;;;;5.70;99.90;;;;;;5111995;28;20405;-72
2020/12/16 02:36:33;;;;;;;;;;;5.80;99.90;;;;;;5110350;28;20404;-71
2020/12/16 02:39:05;;;;;;;;;;;5.70;99.90;;;;;;5111781;28;19923;-71
2020/12/16 02:41:40;;;;;;;;;;;5.70;99.90;;;;;;5091095;28;19933;-72
2020/12/16 02:44:09;;;;;;;;;;;5.70;99.90;;;;;;5108130;28;19931;-71
2020/12/16 02:46:42;;;;;;;;;;;5.70;99.90;;;;;;5093320;28;19928;-71
2020/12/16 02:49:09;;;;;;;;;;;5.70;99.90;;;;;;5109854;28;19946;-74
2020/12/16 02:51:36;;;;;;;;;;;5.70;99.90;;;;;;5112072;28;19930;-71
2020/12/16 02:54:04;;;;;;;;;;;5.80;99.90;;;;;;5101861;28;19923;-78
2020/12/16 02:56:47;;;;;;;;;;;5.70;99.90;;;;;;5091756;28;19924;-71
2020/12/16 02:59:14;;;;;;;;;;;5.70;99.90;;;;;;5104478;28;19924;-71
2020/12/16 03:01:47;;;;;;;;;;;5.70;99.90;;;;;;5112239;28;19924;-71
2020/12/16 03:04:26;;;;;;;;;;;5.70;99.90;;;;;;5091859;28;19967;-71
2020/12/16 03:07:11;;;;;;;;;;;5.80;99.90;;;;;;5091922;28;19986;-73
2020/12/16 03:09:40;;;;;;;;;;;5.70;99.90;;;;;;5096284;28;19965;-72
2020/12/16 03:12:07;;;;;;;;;;;5.70;99.90;;;;;;5111220;28;19935;-71
2020/12/16 03:14:46;;;;;;;;;;;5.70;99.90;;;;;;5092897;28;19971;-71
2020/12/16 03:17:13;;;;;;;;;;;5.80;99.90;;;;;;5090727;28;19928;-73
2020/12/16 03:19:43;;;;;;;;;;;5.80;99.90;;;;;;5102178;28;20338;-73
2020/12/16 03:22:10;;;;;;;;;;;5.80;99.90;;;;;;5111000;28;19924;-73
2020/12/16 03:24:43;;;;;;;;;;;5.90;99.90;;;;;;5097091;28;19958;-73
2020/12/16 03:27:16;;;;;;;;;;;5.90;99.90;;;;;;5091092;28;20331;-72
2020/12/16 03:29:56;;;;;;;;;;;5.90;99.90;;;;;;5100474;28;19963;-72
2020/12/16 03:32:42;;;;;;;;;;;5.90;99.90;;;;;;5070677;28;20381;-72
2020/12/16 03:35:21;;;;;;;;;;;5.90;99.90;;;;;;5090354;28;19976;-72
2020/12/16 03:37:50;;;;;;;;;;;5.90;99.90;;;;;;5098253;28;20029;-72
2020/12/16 03:40:20;;;;;;;;;;;5.90;99.90;;;;;;5108194;28;20808;-72
2020/12/16 03:42:53;;;;;;;;;;;6.00;99.90;;;;;;5099118;28;19997;-71
2020/12/16 03:45:20;;;;;;;;;;;6.00;99.90;;;;;;5100815;28;20042;-71
2020/12/16 03:47:47;;;;;;;;;;;6.00;99.90;;;;;;5111316;28;19928;-71
2020/12/16 03:50:15;;;;;;;;;;;6.10;99.90;;;;;;5092217;28;19932;-71
2020/12/16 03:52:41;;;;;;;;;;;6.10;99.90;;;;;;5091013;28;19924;-71
2020/12/16 03:55:42;;;;;;;;;;;6.10;99.90;;;;;;5089925;28;19971;-72
2020/12/16 03:58:32;;;;;;;;;;;6.20;99.90;;;;;;5101400;28;19924;-71
2020/12/16 04:01:12;;;;;;;;;;;6.20;99.90;;;;;;5107857;28;19972;-71
2020/12/16 04:03:41;;;;;;;;;;;6.20;99.90;;;;;;5110905;28;19924;-71
2020/12/16 04:06:25;;;;;;;;;;;6.20;99.90;;;;;;5095193;28;19950;-71
2020/12/16 04:08:53;;;;;;;;;;;6.20;99.90;;;;;;5092453;28;19928;-71
2020/12/16 04:11:31;;;;;;;;;;;6.20;99.90;;;;;;5107313;28;19923;-72
2020/12/16 04:14:07;;;;;;;;;;;6.20;99.90;;;;;;5110518;28;19931;-71
2020/12/16 04:16:38;;;;;;;;;;;6.10;99.90;;;;;;5097027;28;19931;-71
2020/12/16 04:19:10;;;;;;;;;;;6.20;99.90;;;;;;5090155;28;19925;-72
2020/12/16 04:21:37;;;;;;;;;;;6.20;99.90;;;;;;5097528;28;19923;-71
2020/12/16 04:24:04;;;;;;;;;;;6.20;99.90;;;;;;5110719;28;19963;-73
2020/12/16 04:27:00;;;;;;;;;;;6.20;99.90;;;;;;5095718;28;19923;-76
2020/12/16 04:29:27;;;;;;;;;;;6.20;99.90;;;;;;5111933;28;20100;-72
2020/12/16 04:31:54;;;;;;;;;;;6.20;99.90;;;;;;5092184;28;19925;-72
2020/12/16 04:34:27;;;;;;;;;;;6.20;99.90;;;;;;5099660;28;19952;-72
2020/12/16 04:36:53;;;;;;;;;;;6.20;99.90;;;;;;5099164;28;19924;-72
2020/12/16 04:39:22;;;;;;;;;;;6.20;99.90;;;;;;5113965;28;20362;-71
2020/12/16 04:41:51;;;;;;;;;;;6.20;99.90;;;;;;5110006;28;20441;-72
2020/12/16 04:44:18;;;;;;;;;;;6.20;99.90;;;;;;5113893;28;20430;-72
2020/12/16 04:46:54;;;;;;;;;;;6.20;99.90;;;;;;5113265;28;20383;-72
2020/12/16 04:49:29;;;;;;;;;;;6.30;99.90;;;;;;5113380;28;19931;-75
2020/12/16 04:51:57;;;;;;;;;;;6.30;99.90;;;;;;5113094;28;19959;-72
2020/12/16 04:54:37;;;;;;;;;;;6.30;99.90;;;;;;5094002;28;19924;-72
2020/12/16 04:57:06;;;;;;;;;;;6.30;99.90;;;;;;5093134;28;20361;-72
2020/12/16 04:59:37;;;;;;;;;;;6.30;99.90;;;;;;5114440;28;20010;-72
2020/12/16 05:02:16;;;;;;;;;;;6.40;99.90;;;;;;5110379;28;19931;-72
2020/12/16 05:05:03;;;;;;;;;;;6.40;99.90;;;;;;5114441;28;19928;-72
2020/12/16 05:07:30;;;;;;;;;;;6.30;99.90;;;;;;5111861;28;19970;-72
2020/12/16 05:09:56;;;;;;;;;;;6.30;99.90;;;;;;5114513;28;19962;-72
2020/12/16 05:12:23;;;;;;;;;;;6.30;99.90;;;;;;5100567;28;19924;-72
2020/12/16 05:14:49;;;;;;;;;;;6.30;99.90;;;;;;5113096;28;20371;-72
2020/12/16 05:17:16;;;;;;;;;;;6.40;99.90;;;;;;5114378;28;19923;-72
2020/12/16 05:20:01;;;;;;;;;;;6.40;99.90;;;;;;5109900;28;20007;-77
2020/12/16 05:22:29;;;;;;;;;;;6.50;99.90;;;;;;5114927;28;20347;-72
2020/12/16 05:24:55;;;;;;;;;;;6.50;99.90;;;;;;5112592;28;19924;-72
2020/12/16 05:27:23;;;;;;;;;;;6.50;99.90;;;;;;5099510;28;19924;-71
2020/12/16 05:29:53;;;;;;;;;;;6.50;99.90;;;;;;5106619;28;19954;-72
2020/12/16 05:32:23;;;;;;;;;;;6.60;99.90;;;;;;5114128;27;20586;-72
2020/12/16 05:34:49;;;;;;;;;;;6.50;99.90;;;;;;5112098;27;19924;-72
2020/12/16 05:37:29;;;;;;;;;;;6.60;99.90;;;;;;5114261;28;19924;-72
2020/12/16 05:39:57;;;;;;;;;;;6.60;99.90;;;;;;5111975;28;20014;-72
2020/12/16 05:42:25;;;;;;;;;;;6.60;99.90;;;;;;5113834;28;19965;-72
2020/12/16 05:44:51;;;;;;;;;;;6.60;99.90;;;;;;5112046;28;19923;-72
2020/12/16 05:47:18;;;;;;;;;;;6.60;99.90;;;;;;5113678;28;19930;-75
2020/12/16 05:49:45;;;;;;;;;;;6.60;99.90;;;;;;5111499;28;20368;-71
2020/12/16 05:52:11;;;;;;;;;;;6.70;99.90;;;;;;5113587;28;20338;-72
2020/12/16 05:54:38;;;;;;;;;;;6.80;99.90;;;;;;5111127;28;20018;-72
2020/12/16 05:57:13;;;;;;;;;;;6.80;99.90;;;;;;5113818;28;19969;-72
2020/12/16 05:59:39;;;;;;;;;;;6.70;99.90;;;;;;5111316;28;19939;-72
2020/12/16 06:02:06;;;;;;;;;;;6.50;99.90;;;;;;5113704;28;19931;-71
2020/12/16 06:04:33;;;;;;;;;;;6.60;99.90;;;;;;5111170;28;19927;-72
2020/12/16 06:07:00;;;;;;;;;;;6.70;99.90;;;;;;5114281;28;20430;-71
2020/12/16 06:09:27;;;;;;;;;;;6.70;99.90;;;;;;5100065;28;20356;-74
2020/12/16 06:11:54;;;;;;;;;;;6.70;99.90;;;;;;5110717;28;19927;-71
2020/12/16 06:14:21;;;;;;;;;;;6.70;99.90;;;;;;5112365;28;19977;-72
2020/12/16 06:16:47;;;;;;;;;;;6.70;99.90;;;;;;5111399;28;19923;-72
2020/12/16 06:19:23;;;;;;;;;;;6.70;99.90;;;;;;5113442;28;19932;-71
2020/12/16 06:21:54;;;;;;;;;;;6.70;99.90;;;;;;5111108;28;20010;-72
2020/12/16 06:24:24;;;;;;;;;;;6.70;99.90;;;;;;5112948;28;19924;-72
2020/12/16 06:26:52;;;;;;;;;;;6.60;99.90;;;;;;5110863;28;19985;-71
2020/12/16 06:29:19;;;;;;;;;;;6.60;99.90;;;;;;5112759;28;20027;-72
2020/12/16 06:31:46;;;;;;;;;;;6.60;99.90;;;;;;5110932;28;19955;-72
2020/12/16 06:34:14;;;;;;;;;;;6.50;99.90;;;;;;5112697;28;19927;-72
2020/12/16 06:36:41;;;;;;;;;;;6.50;99.90;;;;;;5111003;28;19923;-72
2020/12/16 06:39:14;;;;;;;;;;;6.40;99.90;;;;;;5112535;28;20016;-72
2020/12/16 06:41:51;;;;;;;;;;;6.50;99.90;;;;;;5109476;28;20411;-72
2020/12/16 06:44:18;;;;;;;;;;;6.50;99.90;;;;;;5112834;28;19923;-75
2020/12/16 06:46:45;;;;;;;;;;;6.50;99.90;;;;;;5110458;28;19930;-73
2020/12/16 06:49:30;;;;;;;;;;;6.50;99.90;;;;;;5112314;28;19978;-72
2020/12/16 06:51:57;;;;;;;;;;;6.50;99.90;;;;;;5109950;28;19938;-72
2020/12/16 06:54:25;;;;;;;;;;;6.60;99.90;;;;;;5112413;28;19923;-72
2020/12/16 06:57:08;;;;;;;;;;;6.50;99.90;;;;;;5105346;28;19932;-72
2020/12/16 06:59:49;;;;;;;;;;;6.60;99.90;;;;;;5113177;28;19946;-72
2020/12/16 07:02:20;;;;;;;;;;;6.60;99.90;;;;;;5109505;28;19954;-72
2020/12/16 07:04:47;;;;;;;;;;;6.60;99.90;;;;;;5113220;28;19946;-72
2020/12/16 07:07:31;;;;;;;;;;;6.60;99.90;;;;;;5109312;28;19920;-72
2020/12/16 07:09:57;;;;;;;;;;;6.60;99.90;;;;;;5105242;28;19924;-72
2020/12/16 07:12:30;;;;;;;;;;;6.70;99.90;;;;;;5109198;28;19939;-71
2020/12/16 07:14:57;;;;;;;;;;;6.70;99.90;;;;;;5113008;28;20349;-72
2020/12/16 07:17:24;;;;;;;;;;;6.70;99.90;;;;;;5109482;28;20377;-72
2020/12/16 07:19:52;;;;;;;;;;;6.60;99.90;;;;;;5113550;28;20308;-73
2020/12/16 07:22:22;;;;;;;;;;;6.50;99.90;;;;;;5112579;28;20018;-72
2020/12/16 07:24:49;;;;;;;;;;;6.50;99.90;;;;;;5109749;28;20326;-71
2020/12/16 07:27:17;;;;;;;;;;;6.50;99.90;;;;;;5111720;28;20423;-72
2020/12/16 07:29:52;;;;;;;;;;;6.50;99.90;;;;;;5109855;28;19931;-72
2020/12/16 07:32:21;;;;;;;;;;;6.40;99.90;;;;;;5111940;28;19924;-72
2020/12/16 07:34:48;;;;;;;;;;;6.50;99.90;;;;;;5109710;28;20022;-71
2020/12/16 07:37:15;;;;;;;;;;;6.50;99.90;;;;;;5111951;28;19931;-72
2020/12/16 07:39:49;;;;;;;;;;;6.50;99.90;;;;;;5108816;28;20147;-70
2020/12/16 07:42:23;;;;;;;;;;;6.50;99.90;;;;;;5109247;28;19946;-71
2020/12/16 07:44:50;;;;;;;;;;;6.50;99.90;;;;;;5109313;28;19960;-73
2020/12/16 07:47:16;;;;;;;;;;;6.60;99.90;;;;;;5112037;28;20376;-72
2020/12/16 07:49:44;;;;;;;;;;;6.70;99.90;;;;;;5109179;28;19963;-71
2020/12/16 07:52:10;;;;;;;;;;;6.70;99.90;;;;;;5110682;28;19981;-72
2020/12/16 07:54:37;;;;;;;;;;;6.70;99.90;;;;;;5100002;28;20304;-72
2020/12/16 07:57:03;;;;;;;;;;;6.70;99.90;;;;;;5111560;28;19967;-72
2020/12/16 07:59:31;;;;;;;;;;;6.70;99.90;;;;;;5109536;28;19924;-75
2020/12/16 08:02:04;;;;;;;;;;;6.80;99.90;;;;;;5112315;28;19984;-72
2020/12/16 08:04:30;;;;;;;;;;;6.80;99.90;;;;;;5110670;28;19936;-72
2020/12/16 08:07:10;;;;;;;;;;;6.80;99.90;;;;;;5116343;28;19971;-70
2020/12/16 08:09:37;;;;;;;;;;;6.80;99.90;;;;;;5100693;28;19930;-70
2020/12/16 08:12:03;;;;;;;;;;;6.80;99.90;;;;;;5115493;28;19927;-73
2020/12/16 08:14:29;;;;;;;;;;;6.80;99.90;;;;;;5114127;28;19969;-73
2020/12/16 08:17:08;;;;;;;;;;;6.80;99.90;;;;;;5115254;28;19928;-72
2020/12/16 08:19:34;;;;;;;;;;;6.70;99.90;;;;;;5115972;28;20316;-72
2020/12/16 08:22:09;;;;;;;;;;;6.80;99.90;;;;;;5113268;28;19923;-81
2020/12/16 08:24:36;;;;;;;;;;;6.90;99.90;;;;;;5114965;28;19924;-71
2020/12/16 08:27:03;;;;;;;;;;;6.90;99.90;;;;;;5112926;28;19928;-70
2020/12/16 08:29:29;;;;;;;;;;;6.90;99.90;;;;;;5115977;27;20027;-71
2020/12/16 08:31:56;;;;;;;;;;;7.00;99.90;;;;;;5112928;28;19923;-72
2020/12/16 08:34:23;;;;;;;;;;;7.00;99.90;;;;;;5114973;28;19928;-72
2020/12/16 08:36:50;;;;;;;;;;;7.20;99.90;;;;;;5110857;28;20256;-70
2020/12/16 08:39:23;;;;;;;;;;;7.40;99.90;;;;;;5115175;28;19924;-71
2020/12/16 08:41:53;;;;;;;;;;;7.50;99.90;;;;;;5112416;28;19938;-71
2020/12/16 08:44:21;;;;;;;;;;;7.60;99.90;;;;;;5115080;28;19930;-70
2020/12/16 08:46:47;;;;;;;;;;;7.70;99.90;;;;;;5112392;27;19924;-71
2020/12/16 08:49:14;;;;;;;;;;;7.60;99.90;;;;;;5114746;28;20028;-71
2020/12/16 08:51:41;;;;;;;;;;;7.60;99.90;;;;;;5112124;28;19924;-71
2020/12/16 08:54:09;;;;;;;;;;;7.60;99.90;;;;;;5114878;28;19924;-72
2020/12/16 08:56:39;;;;;;;;;;;7.60;99.90;;;;;;5111527;28;20329;-71
2020/12/16 08:59:11;;;;;;;;;;;7.70;99.90;;;;;;5115034;28;19923;-71
2020/12/16 09:01:38;;;;;;;;;;;7.90;99.90;;;;;;5112511;28;19924;-71
2020/12/16 09:04:05;;;;;;;;;;;8.20;99.90;;;;;;5113483;28;19981;-71
2020/12/16 09:06:31;;;;;;;;;;;8.60;99.90;;;;;;5113534;28;19935;-71
2020/12/16 09:08:58;;;;;;;;;;;8.70;99.90;;;;;;5108968;28;19923;-71
2020/12/16 09:11:24;;;;;;;;;;;8.70;99.90;;;;;;5110301;28;19928;-71
2020/12/16 09:13:57;;;;;;;;;;;8.60;99.90;;;;;;5110695;28;19928;-70
2020/12/16 09:16:26;;;;;;;;;;;8.60;99.90;;;;;;5112694;28;20364;-71
2020/12/16 09:18:52;;;;;;;;;;;8.50;99.90;;;;;;5112378;28;19945;-76
2020/12/16 09:21:29;;;;;;;;;;;8.60;99.90;;;;;;5114387;28;19924;-71
2020/12/16 09:23:56;;;;;;;;;;;8.60;99.90;;;;;;5111421;28;19976;-71
2020/12/16 09:26:33;;;;;;;;;;;8.60;99.90;;;;;;5114658;28;19959;-71
2020/12/16 09:28:59;;;;;;;;;;;8.60;99.90;;;;;;5111976;27;20399;-71
2020/12/16 09:31:27;;;;;;;;;;;8.70;99.90;;;;;;5113933;28;19993;-71
2020/12/16 09:33:56;;;;;;;;;;;8.70;99.90;;;;;;5111769;28;19928;-71
2020/12/16 09:36:23;;;;;;;;;;;8.60;99.90;;;;;;5113918;28;20387;-71
2020/12/16 09:38:53;;;;;;;;;;;8.50;99.90;;;;;;5111718;28;19923;-71
2020/12/16 09:41:20;;;;;;;;;;;8.50;99.90;;;;;;5112582;28;20172;-71
2020/12/16 09:43:47;;;;;;;;;;;8.50;99.90;;;;;;5111304;28;19963;-71
2020/12/16 09:46:18;;;;;;;;;;;8.50;99.90;;;;;;5113674;28;19927;-71
2020/12/16 09:48:46;;;;;;;;;;;8.40;99.90;;;;;;5111310;28;19936;-71
2020/12/16 09:51:13;;;;;;;;;;;8.40;99.90;;;;;;5113253;28;19986;-71
2020/12/16 09:53:41;;;;;;;;;;;8.40;99.90;;;;;;5102991;28;19924;-71
2020/12/16 09:56:07;;;;;;;;;;;8.40;99.90;;;;;;5113648;28;20018;-72
2020/12/16 09:58:37;;;;;;;;;;;8.40;99.90;;;;;;5111447;27;19924;-72
2020/12/16 10:01:04;;;;;;;;;;;8.40;99.90;;;;;;5113448;28;19994;-71
2020/12/16 10:03:30;;;;;;;;;;;8.40;99.90;;;;;;5114322;28;19973;-74
2020/12/16 10:05:57;;;;;;;;;;;8.50;99.90;;;;;;5111122;28;19931;-71
2020/12/16 10:08:23;;;;;;;;;;;8.50;99.90;;;;;;5113292;28;19926;-71
2020/12/16 10:10:50;;;;;;;;;;;8.60;99.90;;;;;;5098206;28;19931;-71
2020/12/16 10:13:16;;;;;;;;;;;8.80;99.90;;;;;;5112218;28;19924;-71
2020/12/16 10:15:43;;;;;;;;;;;8.80;99.90;;;;;;5110437;28;20065;-71
2020/12/16 10:18:09;;;;;;;;;;;8.80;99.90;;;;;;5113301;28;19928;-71
2020/12/16 10:20:36;;;;;;;;;;;8.70;99.90;;;;;;5110606;28;19924;-71
2020/12/16 10:23:03;;;;;;;;;;;8.80;99.90;;;;;;5112940;28;20423;-72
2020/12/16 10:25:30;;;;;;;;;;;8.80;99.90;;;;;;5110499;28;20396;-72
2020/12/16 10:27:57;;;;;;;;;;;8.80;99.90;;;;;;5112909;28;19930;-71
2020/12/16 10:30:26;;;;;;;;;;;8.70;99.90;;;;;;5109931;28;19971;-71
2020/12/16 10:32:52;;;;;;;;;;;8.70;99.90;;;;;;5113510;28;19931;-71
2020/12/16 10:35:19;;;;;;;;;;;8.60;99.90;;;;;;5109323;28;20265;-71
2020/12/16 10:37:45;;;;;;;;;;;8.60;99.90;;;;;;5113420;28;20013;-71
2020/12/16 10:40:13;;;;;;;;;;;8.50;99.90;;;;;;5110464;28;19977;-71
2020/12/16 10:42:39;;;;;;;;;;;8.50;99.90;;;;;;5113115;28;19931;-71
2020/12/16 10:45:06;;;;;;;;;;;8.60;99.90;;;;;;5112636;28;20018;-71
2020/12/16 10:47:32;;;;;;;;;;;8.60;99.90;;;;;;5110704;28;19924;-71
2020/12/16 10:49:59;;;;;;;;;;;8.60;99.90;;;;;;5112961;28;20296;-71
2020/12/16 10:52:25;;;;;;;;;;;8.50;99.90;;;;;;5109801;28;19931;-71
2020/12/16 10:54:51;;;;;;;;;;;8.40;99.90;;;;;;5113217;28;19963;-71
2020/12/16 10:57:20;;;;;;;;;;;8.40;99.90;;;;;;5109955;27;19959;-71
2020/12/16 10:59:47;;;;;;;;;;;8.40;99.90;;;;;;5113067;28;19934;-71
2020/12/16 11:02:15;;;;;;;;;;;8.40;99.90;;;;;;5109129;28;19927;-71
2020/12/16 11:04:41;;;;;;;;;;;8.60;99.90;;;;;;5111692;28;20346;-71
2020/12/16 11:07:08;;;;;;;;;;;8.60;99.90;;;;;;5108899;28;19931;-71
2020/12/16 11:09:34;;;;;;;;;;;8.60;99.90;;;;;;5112353;28;19930;-71
2020/12/16 11:12:00;;;;;;;;;;;8.90;99.90;;;;;;5109760;28;20392;-80
2020/12/16 11:14:27;;;;;;;;;;;9.00;99.90;;;;;;5112396;28;20026;-71
2020/12/16 11:16:54;;;;;;;;;;;9.20;99.90;;;;;;5108076;28;19932;-71
2020/12/16 11:19:21;;;;;;;;;;;9.30;99.90;;;;;;5111874;28;20039;-71
2020/12/16 11:21:49;;;;;;;;;;;9.40;99.90;;;;;;5109677;28;20369;-71
2020/12/16 11:24:16;;;;;;;;;;;9.40;99.90;;;;;;5112009;28;20381;-71
2020/12/16 11:26:43;;;;;;;;;;;9.40;99.90;;;;;;5112891;28;19931;-71
2020/12/16 11:29:10;;;;;;;;;;;9.20;99.90;;;;;;5109141;28;19923;-74
2020/12/16 11:31:40;;;;;;;;;;;9.20;99.90;;;;;;5112406;28;19930;-71
2020/12/16 11:34:07;;;;;;;;;;;9.20;99.90;;;;;;5109814;28;19928;-71
2020/12/16 11:36:34;;;;;;;;;;;9.20;99.90;;;;;;5113134;28;20400;-70
2020/12/16 11:39:01;;;;;;;;;;;9.20;99.90;;;;;;5113898;28;19924;-81
2020/12/16 11:41:27;;;;;;;;;;;9.30;99.90;;;;;;5119494;28;19981;-73
2020/12/16 11:43:54;;;;;;;;;;;9.30;99.90;;;;;;5116538;28;19928;-71
2020/12/16 11:46:20;;;;;;;;;;;9.40;99.90;;;;;;5104934;27;20697;-71
2020/12/16 11:48:47;;;;;;;;;;;9.50;99.90;;;;;;5106075;28;19930;-71
2020/12/16 11:51:13;;;;;;;;;;;9.50;99.90;;;;;;5118449;27;19927;-71
2020/12/16 11:53:41;;;;;;;;;;;9.40;99.90;;;;;;5116813;27;20387;-71
2020/12/16 11:56:07;;;;;;;;;;;9.30;99.90;;;;;;5118544;28;19924;-70
2020/12/16 11:58:35;;;;;;;;;;;9.40;99.90;;;;;;5116021;28;20417;-70
2020/12/16 12:01:01;;;;;;;;;;;9.20;99.90;;;;;;5118943;27;20019;-79
2020/12/16 12:03:27;;;;;;;;;;;9.20;99.90;;;;;;5116415;28;19923;-72
2020/12/16 12:05:54;;;;;;;;;;;9.20;99.90;;;;;;5119225;27;19927;-71
2020/12/16 12:08:20;;;;;;;;;;;9.10;99.90;;;;;;5119075;27;19970;-71
2020/12/16 12:10:48;;;;;;;;;;;9.20;99.90;;;;;;5115281;27;19969;-71
2020/12/16 12:13:14;;;;;;;;;;;9.10;99.90;;;;;;5119057;28;19924;-72
2020/12/16 12:15:41;;;;;;;;;;;9.10;99.90;;;;;;5116207;28;20369;-71
2020/12/16 12:18:07;;;;;;;;;;;9.20;99.90;;;;;;5118477;27;19934;-71
2020/12/16 12:20:33;;;;;;;;;;;9.20;99.90;;;;;;5116104;27;20296;-71
2020/12/16 12:23:00;;;;;;;;;;;9.20;99.90;;;;;;5118967;28;19924;-71
2020/12/16 12:25:26;;;;;;;;;;;9.20;99.90;;;;;;5115850;28;20015;-71
2020/12/16 12:27:53;;;;;;;;;;;9.20;99.90;;;;;;5118873;28;19924;-71
2020/12/16 12:30:20;;;;;;;;;;;9.30;99.90;;;;;;5115608;28;19930;-72
2020/12/16 12:32:46;;;;;;;;;;;9.30;99.90;;;;;;5118812;28;20376;-70
2020/12/16 12:35:13;;;;;;;;;;;9.40;99.90;;;;;;5115942;27;19981;-71
2020/12/16 12:37:40;;;;;;;;;;;9.30;99.90;;;;;;5118659;27;20417;-71
2020/12/16 12:40:07;;;;;;;;;;;9.30;99.90;;;;;;5114351;28;20026;-72
2020/12/16 12:42:33;;;;;;;;;;;9.30;99.90;;;;;;5118665;27;20315;-72
2020/12/16 12:45:01;;;;;;;;;;;9.40;99.90;;;;;;5116264;28;19923;-72
2020/12/16 12:47:28;;;;;;;;;;;9.30;99.90;;;;;;5118942;28;19924;-72
2020/12/16 12:49:54;;;;;;;;;;;9.30;99.90;;;;;;5117101;27;19932;-71
2020/12/16 12:52:20;;;;;;;;;;;9.30;99.90;;;;;;5092226;28;20238;-70
2020/12/16 12:54:47;;;;;;;;;;;9.30;99.90;;;;;;5095271;28;19955;-69
2020/12/16 12:57:13;;;;;;;;;;;9.30;99.90;;;;;;5108844;28;19928;-70
2020/12/16 12:59:40;;;;;;;;;;;9.30;99.90;;;;;;5115285;28;20300;-70
2020/12/16 13:02:08;;;;;;;;;;;9.40;99.90;;;;;;5111608;28;19934;-71
2020/12/16 13:04:34;;;;;;;;;;;9.30;99.90;;;;;;5115291;28;19971;-71
2020/12/16 13:07:01;;;;;;;;;;;9.30;99.90;;;;;;5112494;28;19923;-77
2020/12/16 13:09:27;;;;;;;;;;;9.40;99.90;;;;;;5114762;28;19923;-72
2020/12/16 13:11:54;;;;;;;;;;;9.30;99.90;;;;;;5111896;28;20456;-71
2020/12/16 13:14:20;;;;;;;;;;;9.20;99.90;;;;;;5114709;28;19968;-71
2020/12/16 13:16:47;;;;;;;;;;;9.20;99.90;;;;;;5112566;28;20296;-71
2020/12/16 13:19:16;;;;;;;;;;;9.20;99.90;;;;;;5114584;28;19928;-71
2020/12/16 13:21:43;;;;;;;;;;;9.20;99.90;;;;;;5112592;28;19920;-72
2020/12/16 13:24:09;;;;;;;;;;;9.20;99.90;;;;;;5114807;28;19966;-71
2020/12/16 13:26:41;;;;;;;;;;;9.20;99.90;;;;;;5112687;28;19924;-71
2020/12/16 13:29:07;;;;;;;;;;;9.20;99.90;;;;;;5114332;28;19924;-72
2020/12/16 13:31:34;;;;;;;;;;;9.20;99.90;;;;;;5114652;28;20391;-71
2020/12/16 13:34:00;;;;;;;;;;;9.30;99.90;;;;;;5108759;28;19924;-71
2020/12/16 13:36:28;;;;;;;;;;;9.30;99.90;;;;;;5094526;28;19924;-72
2020/12/16 13:38:54;;;;;;;;;;;9.30;99.90;;;;;;5109907;28;20023;-71
2020/12/16 13:41:21;;;;;;;;;;;9.30;99.90;;;;;;5111209;28;20053;-72
2020/12/16 13:43:47;;;;;;;;;;;9.30;99.90;;;;;;5106539;28;20300;-70
2020/12/16 13:46:13;;;;;;;;;;;9.30;99.90;;;;;;5114679;28;20433;-71
2020/12/16 13:48:40;;;;;;;;;;;9.30;99.90;;;;;;5112061;28;19972;-72
2020/12/16 13:51:07;;;;;;;;;;;9.20;99.90;;;;;;5113725;28;19928;-70
2020/12/16 13:53:34;;;;;;;;;;;9.20;99.90;;;;;;5101635;28;19928;-73
2020/12/16 13:56:02;;;;;;;;;;;9.20;99.90;;;;;;5107834;28;19947;-76
2020/12/16 13:58:28;;;;;;;;;;;9.30;99.90;;;;;;5111061;28;19920;-74
2020/12/16 14:00:54;;;;;;;;;;;9.20;99.90;;;;;;5113878;28;19931;-70
2020/12/16 14:03:21;;;;;;;;;;;9.30;99.90;;;;;;5109444;28;19989;-70
2020/12/16 14:05:47;;;;;;;;;;;9.30;99.90;;;;;;5113956;28;19934;-70
2020/12/16 14:08:14;;;;;;;;;;;9.20;99.90;;;;;;5110832;28;19928;-70
2020/12/16 14:10:41;;;;;;;;;;;9.30;99.90;;;;;;5113826;28;19930;-70
2020/12/16 14:13:07;;;;;;;;;;;9.50;99.90;;;;;;5096027;28;20026;-70
2020/12/16 14:15:34;;;;;;;;;;;9.50;99.90;;;;;;5105193;28;19935;-70
2020/12/16 14:18:00;;;;;;;;;;;9.50;99.90;;;;;;5092589;28;20349;-70
2020/12/16 14:20:27;;;;;;;;;;;9.40;99.90;;;;;;5108107;28;19924;-70
2020/12/16 14:22:53;;;;;;;;;;;9.50;99.90;;;;;;5114046;28;20300;-70
2020/12/16 14:25:20;;;;;;;;;;;9.50;99.90;;;;;;5110793;28;19977;-70
2020/12/16 14:27:47;;;;;;;;;;;9.50;99.90;;;;;;5113612;28;19930;-70
2020/12/16 14:30:13;;;;;;;;;;;9.50;99.90;;;;;;5111130;28;19935;-71
2020/12/16 14:32:40;;;;;;;;;;;9.40;99.90;;;;;;5113433;28;20403;-74
2020/12/16 14:35:06;;;;;;;;;;;9.30;99.90;;;;;;5110881;28;20042;-71
2020/12/16 14:37:33;;;;;;;;;;;9.30;99.90;;;;;;5113679;27;19950;-70
2020/12/16 14:39:59;;;;;;;;;;;9.20;99.90;;;;;;5110765;28;19924;-70